createdAt,value
2023-02-02T00:00:57.880Z,622.00
2023-02-02T00:01:57.977Z,614.00
2023-02-02T00:02:58.071Z,620.00
2023-02-02T00:03:58.113Z,617.00
2023-02-02T00:04:58.128Z,635.00
2023-02-02T00:05:58.200Z,627.00
2023-02-02T00:06:58.269Z,628.00
2023-02-02T00:07:58.321Z,626.00
2023-02-02T00:08:58.387Z,622.00
2023-02-02T00:09:58.439Z,619.00
2023-02-02T00:10:58.498Z,623.00
2023-02-02T00:11:58.571Z,614.00
2023-02-02T00:12:58.594Z,617.00
2023-02-02T00:13:58.644Z,627.00
2023-02-02T00:14:58.663Z,622.00
2023-02-02T00:15:58.756Z,618.00
2023-02-02T00:16:58.794Z,616.00
2023-02-02T00:17:58.845Z,618.00
2023-02-02T00:18:58.912Z,611.00
2023-02-02T00:19:58.973Z,615.00
2023-02-02T00:20:59.017Z,616.00
2023-02-02T00:21:59.080Z,611.00
2023-02-02T00:22:59.137Z,610.00
2023-02-02T00:23:59.214Z,610.00
2023-02-02T00:29:59.518Z,613.00
2023-02-02T00:30:59.577Z,611.00
2023-02-02T00:31:59.645Z,612.00
2023-02-02T00:32:59.671Z,607.00
2023-02-02T00:33:59.719Z,612.00
2023-02-02T00:34:59.756Z,614.00
2023-02-02T00:35:59.801Z,611.00
2023-02-02T00:36:59.853Z,609.00
2023-02-02T00:37:59.893Z,609.00
2023-02-02T00:38:59.915Z,607.00
2023-02-02T00:39:59.961Z,609.00
2023-02-02T00:40:59.963Z,614.00
2023-02-02T00:42:00.049Z,615.00
2023-02-02T00:43:00.098Z,613.00
2023-02-02T00:44:00.101Z,612.00
2023-02-02T00:45:00.129Z,609.00
2023-02-02T00:46:00.194Z,614.00
2023-02-02T00:47:00.212Z,609.00
2023-02-02T00:48:00.248Z,614.00
2023-02-02T00:49:00.285Z,616.00
2023-02-02T00:50:00.337Z,612.00
2023-02-02T00:51:00.379Z,613.00
2023-02-02T00:52:00.444Z,613.00
2023-02-02T00:53:00.475Z,615.00
2023-02-02T00:54:00.525Z,614.00
2023-02-02T00:55:00.553Z,613.00
2023-02-02T00:56:00.593Z,618.00
2023-02-02T00:57:00.621Z,616.00
2023-02-02T00:58:00.669Z,619.00
2023-02-02T00:59:00.753Z,625.00
2023-02-02T01:00:00.789Z,629.00
2023-02-02T01:01:00.874Z,624.00
2023-02-02T01:02:00.944Z,629.00
2023-02-02T01:45:03.382Z,703.00
2023-02-02T01:46:03.453Z,713.00
2023-02-02T01:47:03.453Z,717.00
2023-02-02T01:48:03.510Z,726.00
2023-02-02T01:49:03.530Z,758.00
2023-02-02T01:50:03.563Z,749.00
2023-02-02T01:51:03.643Z,740.00
2023-02-02T01:52:03.652Z,741.00
2023-02-02T02:03:03.905Z,683.00
2023-02-02T02:04:03.985Z,704.00
2023-02-02T02:05:03.904Z,701.00
2023-02-02T02:06:03.954Z,698.00
2023-02-02T02:07:03.933Z,691.00
2023-02-02T02:08:03.932Z,728.00
2023-02-02T02:09:03.937Z,689.00
2023-02-02T02:10:03.927Z,719.00
2023-02-02T02:11:03.969Z,710.00
2023-02-02T02:12:03.967Z,720.00
2023-02-02T02:13:03.923Z,703.00
2023-02-02T02:14:03.942Z,719.00
2023-02-02T02:15:03.916Z,711.00
2023-02-02T02:16:03.969Z,717.00
2023-02-02T02:17:03.916Z,721.00
2023-02-02T02:18:03.974Z,728.00
2023-02-02T02:19:03.897Z,725.00
2023-02-02T02:20:03.954Z,698.00
2023-02-02T02:21:03.929Z,706.00
2023-02-02T02:22:03.889Z,711.00
2023-02-02T02:23:03.973Z,708.00
2023-02-02T02:24:03.944Z,699.00
2023-02-02T02:25:03.950Z,699.00
2023-02-02T02:26:03.967Z,693.00
2023-02-02T02:27:04.038Z,703.00
2023-02-02T02:28:03.986Z,679.00
2023-02-02T02:29:04.040Z,695.00
2023-02-02T02:30:04.053Z,716.00
2023-02-02T02:31:04.217Z,692.00
2023-02-02T02:32:04.132Z,696.00
2023-02-02T02:33:04.163Z,678.00
2023-02-02T02:34:04.204Z,662.00
2023-02-02T02:35:04.254Z,680.00
2023-02-02T02:36:04.316Z,663.00
2023-02-02T02:37:04.409Z,666.00
2023-02-02T02:38:04.446Z,666.00
2023-02-02T02:39:04.512Z,665.00
2023-02-02T02:40:04.571Z,665.00
2023-02-02T02:41:04.612Z,665.00
2023-02-02T02:42:04.675Z,686.00
2023-02-02T02:43:04.754Z,670.00
2023-02-02T02:44:04.811Z,684.00
2023-02-02T02:45:04.865Z,660.00
2023-02-02T02:46:04.998Z,657.00
2023-02-02T02:47:04.978Z,662.00
2023-02-02T02:48:05.065Z,655.00
2023-02-02T02:49:05.140Z,656.00
2023-02-02T02:50:05.164Z,656.00
2023-02-02T02:51:05.217Z,659.00
2023-02-02T02:52:05.297Z,656.00
2023-02-02T02:53:05.361Z,660.00
2023-02-02T02:54:05.384Z,653.00
2023-02-02T02:55:05.450Z,648.00
2023-02-02T03:00:05.722Z,656.00
2023-02-02T03:01:05.796Z,653.00
2023-02-02T03:02:05.833Z,659.00
2023-02-02T03:03:05.920Z,643.00
2023-02-02T03:04:05.934Z,644.00
2023-02-02T03:05:05.986Z,648.00
2023-02-02T03:06:06.031Z,637.00
2023-02-02T03:07:06.099Z,645.00
2023-02-02T03:08:06.161Z,641.00
2023-02-02T03:09:06.229Z,639.00
2023-02-02T03:10:06.277Z,638.00
2023-02-02T03:11:06.319Z,638.00
2023-02-02T03:12:06.355Z,639.00
2023-02-02T03:13:06.438Z,634.00
2023-02-02T03:14:06.454Z,638.00
2023-02-02T03:15:06.548Z,644.00
2023-02-02T03:16:06.576Z,639.00
2023-02-02T03:17:06.629Z,632.00
2023-02-02T06:00:13.310Z,571.00
2023-02-02T06:01:20.356Z,575.00
2023-02-02T06:02:13.386Z,575.00
2023-02-02T06:03:13.503Z,571.00
2023-02-02T06:04:13.366Z,573.00
2023-02-02T06:05:13.346Z,568.00
2023-02-02T06:06:13.343Z,570.00
2023-02-02T06:07:13.319Z,573.00
2023-02-02T06:08:13.324Z,570.00
2023-02-02T06:09:13.291Z,574.00
2023-02-02T06:10:13.304Z,574.00
2023-02-02T06:28:13.356Z,566.00
2023-02-02T06:29:13.336Z,513.00
2023-02-02T06:30:13.361Z,400.00
2023-02-02T06:31:13.470Z,400.00
2023-02-02T06:32:13.401Z,400.00
2023-02-02T06:33:13.878Z,492.00
2023-02-02T06:34:13.468Z,453.00
2023-02-02T06:35:13.463Z,539.00
2023-02-02T06:36:13.531Z,635.00
2023-02-02T06:37:13.557Z,626.00
2023-02-02T06:38:13.891Z,709.00
2023-02-02T06:39:13.895Z,755.00
2023-02-02T06:40:13.652Z,771.00
2023-02-02T06:41:13.740Z,843.00
2023-02-02T06:42:21.401Z,938.00
2023-02-02T06:44:13.701Z,979.00
2023-02-02T06:45:13.661Z,955.00
2023-02-02T06:47:13.675Z,943.00
2023-02-02T06:48:13.663Z,957.00
2023-02-02T06:49:13.927Z,956.00
2023-02-02T06:50:13.630Z,969.00
2023-02-02T06:51:13.658Z,1148.00
2023-02-02T06:52:14.329Z,1129.00
2023-02-02T06:53:13.612Z,1123.00
2023-02-02T06:54:13.627Z,1050.00
2023-02-02T06:55:13.595Z,1094.00
2023-02-02T06:56:13.633Z,1270.00
2023-02-02T06:57:13.591Z,952.00
2023-02-02T06:58:13.617Z,1122.00
2023-02-02T06:59:13.590Z,992.00
2023-02-02T07:00:13.577Z,889.00
2023-02-02T07:01:13.671Z,826.00
2023-02-02T07:02:13.577Z,1009.00
2023-02-02T07:03:13.581Z,1105.00
2023-02-02T07:04:14.423Z,815.00
2023-02-02T07:05:13.857Z,648.00
2023-02-02T07:06:13.576Z,504.00
2023-02-02T07:07:13.529Z,503.00
2023-02-02T07:08:13.523Z,488.00
2023-02-02T07:09:13.515Z,558.00
2023-02-02T07:11:14.289Z,647.00
2023-02-02T07:11:16.590Z,649.00
2023-02-02T07:12:13.525Z,651.00
2023-02-02T07:14:14.014Z,770.00
2023-02-02T07:15:13.502Z,907.00
2023-02-02T07:16:13.548Z,1144.00
2023-02-02T07:17:13.443Z,1166.00
2023-02-02T07:18:13.489Z,1130.00
2023-02-02T07:19:13.418Z,1111.00
2023-02-02T07:20:13.466Z,1090.00
2023-02-02T07:21:13.436Z,1036.00
2023-02-02T07:22:13.503Z,1078.00
2023-02-02T07:23:13.405Z,1097.00
2023-02-02T07:24:13.386Z,1051.00
2023-02-02T07:25:13.479Z,1076.00
2023-02-02T07:26:13.378Z,1104.00
2023-02-02T07:27:13.407Z,1122.00
2023-02-02T07:28:13.374Z,1125.00
2023-02-02T07:29:13.424Z,1123.00
2023-02-02T07:30:13.353Z,1141.00
2023-02-02T07:31:13.393Z,1164.00
2023-02-02T07:32:13.340Z,1159.00
2023-02-02T07:33:13.343Z,1159.00
2023-02-02T07:34:13.372Z,1178.00
2023-02-02T07:35:13.309Z,1188.00
2023-02-02T07:36:13.315Z,1193.00
2023-02-02T08:10:13.441Z,1290.00
2023-02-02T08:19:12.977Z,1197.00
2023-02-02T08:20:13.009Z,1197.00
2023-02-02T08:21:12.979Z,1191.00
2023-02-02T08:22:12.957Z,1214.00
2023-02-02T08:23:12.989Z,1210.00
2023-02-02T08:24:12.980Z,1325.00
2023-02-02T08:25:13.464Z,1314.00
2023-02-02T08:27:13.344Z,1295.00
2023-02-02T08:28:12.968Z,1299.00
2023-02-02T08:29:12.950Z,1280.00
2023-02-02T08:30:12.958Z,1299.00
2023-02-02T08:31:13.000Z,1249.00
2023-02-02T08:32:12.933Z,1278.00
2023-02-02T08:33:12.908Z,1292.00
2023-02-02T08:34:12.908Z,1232.00
2023-02-02T08:38:13.080Z,1310.00
2023-02-02T08:39:13.923Z,1114.00
2023-02-02T08:40:13.147Z,581.00
2023-02-02T08:41:13.096Z,477.00
2023-02-02T08:42:13.162Z,566.00
2023-02-02T08:44:13.179Z,639.00
2023-02-02T08:46:04.070Z,713.00
2023-02-02T08:46:14.798Z,715.00
2023-02-02T08:47:13.185Z,721.00
2023-02-02T08:48:13.190Z,752.00
2023-02-02T08:49:13.197Z,816.00
2023-02-02T08:55:13.502Z,1033.00
2023-02-02T08:58:13.121Z,1115.00
2023-02-02T08:59:13.165Z,1139.00
2023-02-02T09:00:13.155Z,1170.00
2023-02-02T09:01:13.550Z,1178.00
2023-02-02T09:02:13.226Z,1197.00
2023-02-02T09:03:13.205Z,1205.00
2023-02-02T09:04:13.164Z,1214.00
2023-02-02T09:05:13.256Z,1233.00
2023-02-02T09:07:13.393Z,1256.00
2023-02-02T09:08:13.456Z,1265.00
2023-02-02T09:09:13.443Z,1282.00
2023-02-02T09:10:13.494Z,1282.00
2023-02-02T09:11:13.549Z,1300.00
2023-02-02T09:25:14.109Z,1197.00
2023-02-02T09:26:14.176Z,1183.00
2023-02-02T09:27:14.181Z,897.00
2023-02-02T09:28:14.183Z,939.00
2023-02-02T09:29:14.252Z,881.00
2023-02-02T09:30:14.289Z,834.00
2023-02-02T09:31:14.600Z,829.00
2023-02-02T09:32:14.369Z,888.00
2023-02-02T09:33:14.300Z,786.00
2023-02-02T09:34:14.354Z,501.00
2023-02-02T09:35:14.328Z,523.00
2023-02-02T09:36:14.505Z,527.00
2023-02-02T09:37:14.361Z,524.00
2023-02-02T09:38:14.409Z,508.00
2023-02-02T09:39:14.400Z,499.00
2023-02-02T09:40:14.534Z,502.00
2023-02-02T09:41:14.457Z,501.00
2023-02-02T09:42:15.480Z,506.00
2023-02-02T09:43:14.550Z,506.00
2023-02-02T09:44:14.560Z,505.00
2023-02-02T09:45:14.603Z,504.00
2023-02-02T09:46:14.681Z,508.00
2023-02-02T09:47:14.698Z,502.00
2023-02-02T09:48:14.738Z,510.00
2023-02-02T09:49:14.807Z,508.00
2023-02-02T09:50:14.851Z,508.00
2023-02-02T09:53:14.982Z,509.00
2023-02-02T09:58:15.197Z,644.00
2023-02-02T09:59:20.369Z,677.00
2023-02-02T10:00:16.224Z,681.00
2023-02-02T10:01:15.312Z,698.00
2023-02-02T10:02:15.243Z,744.00
2023-02-02T10:03:15.194Z,815.00
2023-02-02T10:04:15.345Z,927.00
2023-02-02T10:05:15.193Z,972.00
2023-02-02T10:06:15.155Z,985.00
2023-02-02T10:07:15.229Z,1025.00
2023-02-02T10:08:18.456Z,1055.00
2023-02-02T10:09:16.149Z,1057.00
2023-02-02T10:10:17.129Z,1067.00
2023-02-02T10:11:15.510Z,1093.00
2023-02-02T10:12:15.419Z,1139.00
2023-02-02T10:13:15.426Z,1199.00
2023-02-02T10:14:15.460Z,1219.00
2023-02-02T10:15:15.508Z,1250.00
2023-02-02T10:16:16.039Z,1259.00
2023-02-02T10:17:15.588Z,1301.00
2023-02-02T10:18:15.596Z,1316.00
2023-02-02T10:19:15.609Z,1325.00
2023-02-02T10:20:15.626Z,1331.00
2023-02-02T10:21:16.017Z,1336.00
2023-02-02T10:22:15.699Z,1359.00
2023-02-02T10:23:15.767Z,1377.00
2023-02-02T10:24:15.735Z,1378.00
2023-02-02T10:25:15.778Z,1380.00
2023-02-02T10:26:15.850Z,1364.00
2023-02-02T10:27:15.872Z,1258.00
2023-02-02T10:28:15.884Z,1220.00
2023-02-02T10:29:15.941Z,1234.00
2023-02-02T10:30:15.947Z,1232.00
2023-02-02T10:31:16.127Z,1243.00
2023-02-02T10:32:15.987Z,1197.00
2023-02-02T10:33:15.968Z,1172.00
2023-02-02T10:34:15.983Z,1157.00
2023-02-02T10:35:16.022Z,1145.00
2023-02-02T10:36:16.062Z,1125.00
2023-02-02T10:37:16.077Z,1103.00
2023-02-02T10:38:16.104Z,1089.00
2023-02-02T10:39:16.150Z,1062.00
2023-02-02T10:40:16.262Z,1059.00
2023-02-02T10:41:16.268Z,1061.00
2023-02-02T10:42:16.332Z,1054.00
2023-02-02T10:43:16.370Z,855.00
2023-02-02T10:44:16.439Z,616.00
2023-02-02T10:45:16.473Z,559.00
2023-02-02T10:46:16.529Z,500.00
2023-02-02T10:47:16.522Z,504.00
2023-02-02T10:48:16.554Z,513.00
2023-02-02T10:49:16.643Z,535.00
2023-02-02T10:50:16.643Z,576.00
2023-02-02T10:51:17.056Z,612.00
2023-02-02T10:52:16.717Z,622.00
2023-02-02T10:53:16.697Z,655.00
2023-02-02T10:54:16.763Z,687.00
2023-02-02T10:55:16.769Z,709.00
2023-02-02T10:56:16.798Z,781.00
2023-02-02T10:57:17.033Z,800.00
2023-02-02T10:58:17.515Z,875.00
2023-02-02T10:59:16.901Z,918.00
2023-02-02T11:00:16.967Z,935.00
2023-02-02T11:01:17.015Z,968.00
2023-02-02T11:02:21.065Z,1008.00
2023-02-02T11:03:16.973Z,1010.00
2023-02-02T11:04:17.043Z,1019.00
2023-02-02T11:05:16.986Z,1041.00
2023-02-02T11:06:16.993Z,1079.00
2023-02-02T11:07:16.958Z,1145.00
2023-02-02T11:08:16.973Z,1152.00
2023-02-02T11:09:16.970Z,1185.00
2023-02-02T11:10:17.103Z,1182.00
2023-02-02T11:11:16.947Z,1182.00
2023-02-02T11:12:17.040Z,1186.00
2023-02-02T11:13:16.949Z,1199.00
2023-02-02T11:14:16.950Z,1200.00
2023-02-02T11:15:16.906Z,1207.00
2023-02-02T11:16:16.962Z,1201.00
2023-02-02T11:17:17.018Z,1173.00
2023-02-02T11:18:16.871Z,1193.00
2023-02-02T11:19:16.982Z,1195.00
2023-02-02T11:20:16.890Z,1183.00
2023-02-02T11:21:16.837Z,1202.00
2023-02-02T11:22:16.888Z,1193.00
2023-02-02T11:23:16.850Z,1177.00
2023-02-02T11:24:16.825Z,1171.00
2023-02-02T11:25:16.813Z,1169.00
2023-02-02T11:26:16.878Z,1184.00
2023-02-02T11:27:17.019Z,1190.00
2023-02-02T11:28:16.820Z,1201.00
2023-02-02T11:29:16.813Z,1204.00
2023-02-02T11:30:16.802Z,1187.00
2023-02-02T11:31:16.904Z,1196.00
2023-02-02T11:32:17.015Z,1188.00
2023-02-02T11:33:16.839Z,1193.00
2023-02-02T11:34:19.439Z,1200.00
2023-02-02T11:37:17.020Z,1170.00
2023-02-02T11:38:16.853Z,1134.00
2023-02-02T11:39:16.780Z,1138.00
2023-02-02T11:40:16.760Z,1118.00
2023-02-02T11:41:16.713Z,1126.00
2023-02-02T11:42:17.048Z,1161.00
2023-02-02T11:43:16.730Z,1143.00
2023-02-02T11:44:16.695Z,1132.00
2023-02-02T11:45:16.703Z,1147.00
2023-02-02T11:46:16.741Z,1163.00
2023-02-02T11:47:17.021Z,1156.00
2023-02-02T11:48:16.693Z,1157.00
2023-02-02T11:49:16.671Z,1169.00
2023-02-02T11:50:16.627Z,1146.00
2023-02-02T11:51:16.649Z,1181.00
2023-02-02T11:52:16.642Z,1197.00
2023-02-02T11:53:16.659Z,1210.00
2023-02-02T11:54:16.622Z,1204.00
2023-02-02T11:55:16.591Z,1209.00
2023-02-02T11:56:16.602Z,1218.00
2023-02-02T11:57:16.620Z,1201.00
2023-02-02T11:58:16.591Z,1226.00
2023-02-02T11:59:16.614Z,1211.00
2023-02-02T12:00:16.622Z,1221.00
2023-02-02T12:01:16.550Z,1213.00
2023-02-02T12:02:16.640Z,1230.00
2023-02-02T12:03:16.576Z,1227.00
2023-02-02T12:04:16.717Z,1234.00
2023-02-02T12:05:16.573Z,1229.00
2023-02-02T12:06:16.540Z,1229.00
2023-02-02T12:07:16.539Z,1225.00
2023-02-02T12:08:16.527Z,1238.00
2023-02-02T12:09:16.495Z,1247.00
2023-02-02T12:10:16.514Z,1243.00
2023-02-02T12:11:16.479Z,1242.00
2023-02-02T12:12:16.506Z,1251.00
2023-02-02T12:16:16.549Z,1297.00
2023-02-02T12:24:16.406Z,1355.00
2023-02-02T12:26:16.412Z,1357.00
2023-02-02T12:27:16.538Z,1376.00
2023-02-02T12:28:16.376Z,1333.00
2023-02-02T12:29:16.388Z,1305.00
2023-02-02T12:30:16.351Z,1352.00
2023-02-02T12:31:16.484Z,1396.00
2023-02-02T12:32:16.565Z,1396.00
2023-02-02T12:33:16.362Z,1405.00
2023-02-02T12:34:16.345Z,1419.00
2023-02-02T12:35:16.363Z,1424.00
2023-02-02T12:36:16.312Z,2726.00
2023-02-02T12:37:16.542Z,1521.00
2023-02-02T12:38:16.303Z,2196.00
2023-02-02T12:39:16.309Z,2246.00
2023-02-02T12:40:16.306Z,2435.00
2023-02-02T12:41:16.309Z,2280.00
2023-02-02T12:42:16.339Z,2196.00
2023-02-02T12:43:16.382Z,2202.00
2023-02-02T12:44:16.425Z,2281.00
2023-02-02T12:45:16.521Z,2289.00
2023-02-02T12:46:16.757Z,2263.00
2023-02-02T12:47:17.067Z,2268.00
2023-02-02T12:48:16.624Z,2225.00
2023-02-02T12:49:16.630Z,2218.00
2023-02-02T12:50:16.668Z,2210.00
2023-02-02T12:51:16.678Z,2191.00
2023-02-02T12:52:16.661Z,2165.00
2023-02-02T12:53:16.664Z,2150.00
2023-02-02T12:54:33.521Z,2155.00
2023-02-02T12:55:17.665Z,2156.00
2023-02-02T12:57:16.684Z,2097.00
2023-02-02T12:58:16.619Z,2080.00
2023-02-02T12:59:16.639Z,2074.00
2023-02-02T13:00:16.647Z,2054.00
2023-02-02T13:01:16.648Z,2031.00
2023-02-02T13:02:16.595Z,2036.00
2023-02-02T13:03:16.574Z,2022.00
2023-02-02T13:04:16.621Z,2009.00
2023-02-02T13:05:16.584Z,2013.00
2023-02-02T13:06:16.730Z,2002.00
2023-02-02T13:07:16.746Z,1988.00
2023-02-02T13:08:16.803Z,1945.00
2023-02-02T13:09:19.653Z,1948.00
2023-02-02T13:10:16.879Z,1950.00
2023-02-02T13:11:16.816Z,1930.00
2023-02-02T13:12:16.826Z,1935.00
2023-02-02T13:13:16.830Z,1921.00
2023-02-02T13:14:16.787Z,1913.00
2023-02-02T13:17:16.758Z,1853.00
2023-02-02T13:18:16.762Z,1865.00
2023-02-02T13:19:16.779Z,1875.00
2023-02-02T13:20:16.739Z,1844.00
2023-02-02T13:21:16.745Z,1843.00
2023-02-02T13:22:16.761Z,1841.00
2023-02-02T13:23:16.761Z,1823.00
2023-02-02T13:24:16.710Z,1801.00
2023-02-02T13:25:16.759Z,1823.00
2023-02-02T13:26:16.826Z,1805.00
2023-02-02T13:27:16.763Z,1805.00
2023-02-02T13:28:16.732Z,1783.00
2023-02-02T13:29:16.712Z,1771.00
2023-02-02T13:30:16.650Z,1768.00
2023-02-02T13:31:16.797Z,1769.00
2023-02-02T13:32:17.570Z,1746.00
2023-02-02T13:33:16.674Z,1728.00
2023-02-02T13:34:16.645Z,1726.00
2023-02-02T13:35:16.667Z,1735.00
2023-02-02T13:36:16.641Z,1723.00
2023-02-02T13:37:17.559Z,1709.00
2023-02-02T13:38:16.650Z,1710.00
2023-02-02T13:39:16.618Z,1707.00
2023-02-02T13:40:16.614Z,1694.00
2023-02-02T13:41:16.624Z,1685.00
2023-02-02T13:42:16.620Z,1688.00
2023-02-02T13:43:16.766Z,1669.00
2023-02-02T13:44:16.615Z,1672.00
2023-02-02T13:45:16.689Z,1659.00
2023-02-02T13:46:16.800Z,1660.00
2023-02-02T13:47:17.566Z,1647.00
2023-02-02T13:48:16.857Z,1637.00
2023-02-02T13:49:16.963Z,1614.00
2023-02-02T13:50:16.989Z,1632.00
2023-02-02T13:51:17.044Z,1616.00
2023-02-02T13:52:17.092Z,1608.00
2023-02-02T13:53:17.147Z,1599.00
2023-02-02T13:54:17.209Z,1578.00
2023-02-02T13:55:17.264Z,1576.00
2023-02-02T13:56:17.325Z,1569.00
2023-02-02T13:57:17.353Z,1575.00
2023-02-02T13:58:17.443Z,1563.00
2023-02-02T13:59:17.505Z,1540.00
2023-02-02T14:00:17.548Z,1555.00
2023-02-02T14:01:17.623Z,1551.00
2023-02-02T14:02:17.676Z,1542.00
2023-02-02T14:03:17.739Z,1537.00
2023-02-02T14:04:17.773Z,1525.00
2023-02-02T14:05:17.810Z,1506.00
2023-02-02T14:06:17.900Z,1510.00
2023-02-02T14:07:17.933Z,1496.00
2023-02-02T14:08:18.049Z,1494.00
2023-02-02T14:09:18.048Z,1500.00
2023-02-02T14:10:18.198Z,1478.00
2023-02-02T14:11:18.167Z,1464.00
2023-02-02T14:12:18.243Z,1474.00
2023-02-02T14:13:18.318Z,1466.00
2023-02-02T14:14:18.366Z,1454.00
2023-02-02T14:15:18.432Z,1435.00
2023-02-02T14:16:18.533Z,1458.00
2023-02-02T14:17:18.520Z,1428.00
2023-02-02T14:18:18.600Z,1422.00
2023-02-02T14:19:18.634Z,1440.00
2023-02-02T14:20:18.667Z,1432.00
2023-02-02T14:21:18.711Z,1406.00
2023-02-02T14:22:18.752Z,1415.00
2023-02-02T14:23:18.840Z,1414.00
2023-02-02T14:24:18.939Z,1424.00
2023-02-02T14:25:18.969Z,1396.00
2023-02-02T14:26:19.137Z,1394.00
2023-02-02T14:27:19.167Z,1395.00
2023-02-02T14:28:19.126Z,1390.00
2023-02-02T14:29:19.160Z,1377.00
2023-02-02T14:30:19.249Z,1367.00
2023-02-02T14:31:19.343Z,1357.00
2023-02-02T14:32:19.366Z,1363.00
2023-02-02T14:33:19.401Z,1362.00
2023-02-02T14:34:19.482Z,1349.00
2023-02-02T14:35:19.543Z,1355.00
2023-02-02T14:36:19.611Z,1348.00
2023-02-02T14:37:19.671Z,1335.00
2023-02-02T14:38:19.711Z,1323.00
2023-02-02T14:39:19.772Z,1326.00
2023-02-02T14:40:19.863Z,1311.00
2023-02-02T14:41:19.883Z,1313.00
2023-02-02T14:42:19.949Z,1314.00
2023-02-02T14:43:19.984Z,1314.00
2023-02-02T14:44:20.065Z,1303.00
2023-02-02T14:45:20.111Z,1301.00
2023-02-02T14:46:20.185Z,1309.00
2023-02-02T14:47:20.201Z,1292.00
2023-02-02T14:48:20.303Z,1283.00
2023-02-02T14:49:20.343Z,1286.00
2023-02-02T14:50:20.410Z,1277.00
2023-02-02T14:51:20.442Z,1261.00
2023-02-02T14:52:20.498Z,1260.00
2023-02-02T14:53:20.582Z,1258.00
2023-02-02T14:54:20.640Z,1257.00
2023-02-02T14:55:20.725Z,1261.00
2023-02-02T14:56:20.763Z,1236.00
2023-02-02T14:57:20.818Z,1234.00
2023-02-02T14:58:20.887Z,1229.00
2023-02-02T14:59:20.976Z,1226.00
2023-02-02T15:00:21.035Z,1212.00
2023-02-02T15:01:21.114Z,1202.00
2023-02-02T15:02:21.219Z,1190.00
2023-02-02T15:03:21.194Z,1213.00
2023-02-02T15:04:21.282Z,1197.00
2023-02-02T15:05:21.334Z,1206.00
2023-02-02T15:06:21.366Z,1144.00
2023-02-02T15:07:21.446Z,1124.00
2023-02-02T15:08:21.466Z,1113.00
2023-02-02T15:09:21.479Z,1094.00
2023-02-02T15:10:21.496Z,1083.00
2023-02-02T15:11:21.511Z,1102.00
2023-02-02T15:12:21.492Z,1092.00
2023-02-02T15:13:21.487Z,1075.00
2023-02-02T15:14:21.485Z,1101.00
2023-02-02T15:15:21.530Z,1101.00
2023-02-02T15:16:21.585Z,1093.00
2023-02-02T15:17:21.608Z,1094.00
2023-02-02T15:18:21.677Z,1089.00
2023-02-02T15:19:21.730Z,1089.00
2023-02-02T15:20:21.766Z,1070.00
2023-02-02T15:21:21.862Z,1082.00
2023-02-02T15:22:21.891Z,1085.00
2023-02-02T15:23:21.960Z,1094.00
2023-02-02T15:24:22.009Z,1087.00
2023-02-02T15:25:22.124Z,1086.00
2023-02-02T15:26:22.282Z,1086.00
2023-02-02T15:27:22.228Z,1074.00
2023-02-02T15:28:22.298Z,1067.00
2023-02-02T15:29:22.340Z,1074.00
2023-02-02T15:30:22.423Z,1085.00
2023-02-02T15:31:22.558Z,1063.00
2023-02-02T15:32:22.589Z,1061.00
2023-02-02T15:33:22.595Z,1055.00
2023-02-02T15:34:22.688Z,1055.00
2023-02-02T15:35:22.853Z,1058.00
2023-02-02T15:36:22.825Z,1043.00
2023-02-02T15:37:22.890Z,1050.00
2023-02-02T15:38:22.919Z,1029.00
2023-02-02T15:39:22.995Z,1018.00
2023-02-02T15:40:23.049Z,1025.00
2023-02-02T15:41:23.105Z,1032.00
2023-02-02T15:42:23.172Z,1026.00
2023-02-02T15:43:23.189Z,1026.00
2023-02-02T15:44:23.292Z,1016.00
2023-02-02T15:45:23.304Z,1014.00
2023-02-02T15:46:23.402Z,1012.00
2023-02-02T15:47:23.408Z,996.00
2023-02-02T15:48:23.501Z,1021.00
2023-02-02T15:49:33.782Z,1007.00
2023-02-02T15:50:24.541Z,1008.00
2023-02-02T15:51:23.550Z,999.00
2023-02-02T15:52:23.583Z,976.00
2023-02-02T15:53:23.535Z,984.00
2023-02-02T15:54:23.509Z,992.00
2023-02-02T15:55:23.906Z,966.00
2023-02-02T15:56:23.473Z,982.00
2023-02-02T15:57:23.527Z,954.00
2023-02-02T15:58:23.539Z,967.00
2023-02-02T15:59:23.541Z,953.00
2023-02-02T16:00:23.595Z,959.00
2023-02-02T16:01:23.612Z,958.00
2023-02-02T16:02:23.662Z,942.00
2023-02-02T16:03:23.720Z,941.00
2023-02-02T16:04:23.770Z,952.00
2023-02-02T16:05:24.400Z,948.00
2023-02-02T16:06:23.733Z,922.00
2023-02-02T16:07:23.797Z,937.00
2023-02-02T16:08:23.850Z,939.00
2023-02-02T16:09:23.819Z,926.00
2023-02-02T16:10:23.796Z,925.00
2023-02-02T16:11:23.830Z,928.00
2023-02-02T16:12:23.802Z,925.00
2023-02-02T16:13:23.839Z,905.00
2023-02-02T16:14:23.875Z,912.00
2023-02-02T16:15:24.084Z,898.00
2023-02-02T16:16:23.877Z,895.00
2023-02-02T16:17:23.804Z,914.00
2023-02-02T16:18:23.821Z,900.00
2023-02-02T16:19:23.817Z,894.00
2023-02-02T16:20:23.833Z,898.00
2023-02-02T16:21:23.845Z,896.00
2023-02-02T16:22:23.802Z,877.00
2023-02-02T16:23:23.881Z,887.00
2023-02-02T16:24:23.816Z,873.00
2023-02-02T16:25:24.072Z,884.00
2023-02-02T16:26:23.864Z,871.00
2023-02-02T16:27:23.783Z,845.00
2023-02-02T16:28:23.778Z,860.00
2023-02-02T16:29:23.802Z,870.00
2023-02-02T16:30:23.792Z,889.00
2023-02-02T16:31:23.829Z,865.00
2023-02-02T16:32:23.784Z,862.00
2023-02-02T16:33:23.804Z,879.00
2023-02-02T16:34:23.751Z,855.00
2023-02-02T16:35:24.223Z,865.00
2023-02-02T16:36:25.581Z,838.00
2023-02-02T16:37:23.807Z,848.00
2023-02-02T16:38:23.811Z,846.00
2023-02-02T16:39:23.846Z,823.00
2023-02-02T16:40:24.761Z,852.00
2023-02-02T16:41:23.808Z,829.00
2023-02-02T16:42:23.841Z,825.00
2023-02-02T16:43:23.818Z,835.00
2023-02-02T16:44:23.782Z,838.00
2023-02-02T16:45:24.151Z,812.00
2023-02-02T16:46:23.841Z,825.00
2023-02-02T16:47:23.831Z,810.00
2023-02-02T16:48:23.829Z,822.00
2023-02-02T16:49:23.780Z,813.00
2023-02-02T16:50:23.736Z,814.00
2023-02-02T16:51:23.742Z,826.00
2023-02-02T16:52:23.805Z,812.00
2023-02-02T16:53:23.796Z,803.00
2023-02-02T16:54:23.756Z,807.00
2023-02-02T16:55:24.189Z,802.00
2023-02-02T16:56:23.763Z,822.00
2023-02-02T16:57:23.763Z,793.00
2023-02-02T16:58:23.843Z,787.00
2023-02-02T16:59:23.773Z,800.00
2023-02-02T17:00:23.741Z,796.00
2023-02-02T17:01:23.760Z,780.00
2023-02-02T17:02:23.803Z,773.00
2023-02-02T17:03:23.740Z,785.00
2023-02-02T17:04:23.774Z,787.00
2023-02-02T17:05:24.082Z,805.00
2023-02-02T17:06:23.785Z,792.00
2023-02-02T17:07:23.740Z,783.00
2023-02-02T17:08:23.757Z,789.00
2023-02-02T17:09:23.826Z,789.00
2023-02-02T17:10:23.748Z,776.00
2023-02-02T17:11:23.812Z,779.00
2023-02-02T17:12:33.865Z,768.00
2023-02-02T17:13:24.750Z,764.00
2023-02-02T17:14:23.752Z,761.00
2023-02-02T17:15:24.202Z,768.00
2023-02-02T17:16:23.737Z,752.00
2023-02-02T17:17:24.062Z,710.00
2023-02-02T17:18:24.086Z,734.00
2023-02-02T17:19:23.714Z,772.00
2023-02-02T17:20:23.710Z,747.00
2023-02-02T17:21:23.703Z,755.00
2023-02-02T17:22:23.728Z,682.00
2023-02-02T17:23:23.699Z,762.00
2023-02-02T17:24:23.678Z,740.00
2023-02-02T17:25:23.968Z,704.00
2023-02-02T17:26:23.688Z,719.00
2023-02-02T17:27:23.661Z,735.00
2023-02-02T17:28:23.643Z,721.00
2023-02-02T17:29:23.648Z,718.00
2023-02-02T17:30:23.620Z,719.00
2023-02-02T17:31:23.728Z,712.00
2023-02-02T17:32:23.628Z,692.00
2023-02-02T17:33:23.612Z,678.00
2023-02-02T17:34:23.602Z,696.00
2023-02-02T17:35:23.881Z,709.00
2023-02-02T17:36:23.579Z,678.00
2023-02-02T17:37:23.592Z,685.00
2023-02-02T17:38:23.590Z,712.00
2023-02-02T17:39:23.555Z,694.00
2023-02-02T17:40:24.100Z,686.00
2023-02-02T17:41:23.617Z,659.00
2023-02-02T17:42:23.641Z,659.00
2023-02-02T17:43:23.668Z,670.00
2023-02-02T17:44:23.656Z,656.00
2023-02-02T17:45:24.011Z,665.00
2023-02-02T17:46:23.754Z,682.00
2023-02-02T17:47:23.724Z,667.00
2023-02-02T17:48:23.767Z,658.00
2023-02-02T17:49:23.772Z,671.00